Wakefield, Rhode Island
Current Conditions -  °F | °C
As of 3:43 PM on Monday 26 Jan 2015 (Local Time) from KUUU Reporting Station
Light Snow Light Snow  
Wind Chill: 17°   Ceiling: 1500
Heat Index: 28°   Visibility: 1mi
Dew Point: 25°   Wind: 13mph
Humidity: 88%   Direction: 40°NE
Pressure: 29.94"   Gusts: NA
Location:  41.44°N, 71.5°W
Report Text: KUUU 262043Z AUTO 04011KT 1SM -SN BR VV015 M02/M04 A2994 RMK AO2 P0001 T10221039
Loading
Personal Weather Stations






























Interactive Weather Map New forecast layout! Learn more

10-Day Weather Forecast

Advertisements
Track Severe Weather on mobile